Latest Coastal Weather Observations for Whyalla

IDS60701

Issued at 3:35 am CDT Sunday 26 October 2014 (issued every 10 minutes, with the page automatically refreshed every 10 minutes)

About coastal observations | Map of coastal stations | Coastal observations for SA | Marine services | Other Formats
Station Details ID: 018120 Name: WHYALLA AERO Lat: -33.05 Lon: 137.52 Height: 6.5 m
Data from the previous 72 hours. | See also: Recent months at Whyalla
Date/Time
CDT
Temp

°C
Wind Pressure Rain
since 9am
mm
Weather Cloud Vis
km
Sea
Height
m
Swell
Dir
 
Speed
knots
Gust
knots
hPa Trend Height
m
Period
s
Dir
26/03:30am 14.0 W 3 5 1011.5 - 0.0 - - 10 - - - -
26/03:00am 14.1 W 4 5 1012.2 - 0.0 - - 10 - - - -
26/02:30am 15.0 W 1 3 1012.3 - 0.0 - - 10 - - - -
26/02:00am 14.9 W 4 5 1012.8 - 0.0 - - 10 - - - -
26/01:30am 14.6 SW 2 4 1013.5 - 0.0 - - 10 - - - -
26/01:00am 15.0 CALM 0 0 1013.9 - 0.0 - - 10 - - - -
26/12:30am 15.1 CALM 0 2 1014.1 - 0.0 - - 10 - - - -
26/12:00am 15.6 SSW 3 5 1014.7 - 0.0 - - 10 - - - -
 
Date/Time
CDT
Temp

°C
Wind Pressure Rain
since 9am
mm
Weather Cloud Vis
km
Sea
Height
m
Swell
Dir
 
Speed
knots
Gust
knots
hPa Trend Height
m
Period
s
Dir
25/11:30pm 16.7 NNW 1 4 1014.9 - 0.0 - - 10 - - - -
25/11:00pm 16.6 SW 5 7 1015.2 - 0.0 - - 10 - - - -
25/10:30pm 17.2 WSW 5 6 1015.7 - 0.0 - - 10 - - - -
25/10:00pm 17.7 WSW 3 5 1015.7 - 0.0 - - 10 - - - -
25/09:30pm 18.4 SW 7 8 1015.8 - 0.0 - - 10 - - - -
25/09:00pm 18.7 SSW 8 10 1015.8 - 0.0 - - 10 - - - -
25/08:30pm 18.8 SSW 7 10 1015.6 - 0.0 - - 10 - - - -
25/08:00pm 19.0 S 10 13 1015.3 - 0.0 - - 10 - - - -
25/07:30pm 19.5 S 10 13 1015.1 - 0.0 - - 10 - - - -
25/07:00pm 20.5 S 10 14 1014.7 - 0.0 - - 10 - - - -
25/06:30pm 20.8 S 12 15 1014.7 - 0.0 - - 10 - - - -
25/06:00pm 21.1 S 12 16 1014.8 - 0.0 - - 10 - - - -
25/05:30pm 21.2 S 12 15 1014.9 - 0.0 - - 10 - - - -
25/05:00pm 21.7 S 13 17 1014.9 - 0.0 - - 10 - - - -
25/04:30pm 21.6 S 13 17 1014.8 - 0.0 - - 10 - - - -
25/04:00pm 21.0 S 13 17 1014.8 - 0.0 - - 10 - - - -
25/03:30pm 21.1 SSE 12 18 1015.0 - 0.0 - - 10 - - - -
25/03:00pm 22.0 SSE 12 17 1015.1 - 0.0 - - 10 - - - -
25/02:30pm 21.8 SSE 11 14 1015.6 - 0.0 - - 10 - - - -
25/02:00pm 20.8 SSE 11 14 1015.7 - 0.0 - - 10 - - - -
25/01:30pm 20.8 SSE 9 13 1016.1 - 0.0 - - 10 - - - -
25/01:00pm 20.6 SSE 9 13 1016.4 - 0.0 - - 10 - - - -
25/12:30pm 20.8 SE 8 12 1016.8 - 0.0 - - 10 - - - -
25/12:00pm 20.2 SE 8 11 1017.0 - 0.0 - - 10 - - - -
25/11:30am 20.4 SE 10 13 1017.3 - 0.0 - Partly cloudy 10 - - - -
25/11:13am 20.0 SSE 9 13 1017.3 - 0.0 - Partly cloudy 10 - - - -
25/11:00am 19.4 SSE 10 15 1017.4 - 0.0 - Partly cloudy 10 - - - -
25/10:30am 19.4 S 11 15 1017.7 - 0.0 - Cloudy 10 - - - -
25/10:00am 18.7 S 9 14 1017.8 - 0.0 - Cloudy 10 - - - -
25/09:39am 18.7 SSE 10 14 1017.6 - 0.0 - Partly cloudy 10 - - - -
25/09:30am 19.0 S 10 15 1017.7 - 0.0 - Partly cloudy 10 - - - -
25/09:00am 18.9 S 9 13 1017.6 - 0.0 - - 10 - - - -
25/08:30am 18.5 S 11 13 1017.6 - 0.0 - - 10 - - - -
25/08:00am 17.7 SSE 4 7 1017.6 - 0.0 - - 10 - - - -
25/07:30am 16.4 E 3 4 1017.4 - 0.0 - - 10 - - - -
25/07:00am 14.6 CALM 0 0 1017.1 - 0.0 - - 10 - - - -
25/06:30am 14.3 WSW 1 3 1016.4 - 0.0 - - 10 - - - -
25/06:00am 14.6 WSW 4 5 1016.1 - 0.0 - - 10 - - - -
25/05:30am 14.9 WSW 4 6 1015.6 - 0.0 - - 10 - - - -
25/05:00am 15.7 W 3 4 1015.0 - 0.0 - - 10 - - - -
25/04:30am 16.0 SW 7 8 1014.8 - 0.0 - - 10 - - - -
25/04:00am 16.4 SSW 8 10 1015.1 - 0.0 - - 10 - - - -
25/03:30am 16.6 SSW 8 12 1014.9 - 0.0 - - 10 - - - -
25/03:00am 16.9 SSW 10 13 1014.7 - 0.0 - - 10 - - - -
25/02:30am 17.3 SSW 12 16 1014.7 - 0.0 - - 10 - - - -
25/02:00am 17.6 SSW 12 16 1014.5 - 0.0 - - 10 - - - -
25/01:30am 17.9 SSW 14 19 1014.9 - 0.0 - - 10 - - - -
25/01:00am 18.3 SSW 14 18 1014.7 - 0.0 - - 10 - - - -
25/12:30am 18.6 SSW 11 13 1014.7 - 0.0 - - 10 - - - -
25/12:00am 19.2 SSW 11 16 1014.7 - 0.0 - Mostly clear 10 - - - -
 
Date/Time
CDT
Temp

°C
Wind Pressure Rain
since 9am
mm
Weather Cloud Vis
km
Sea
Height
m
Swell
Dir
 
Speed
knots
Gust
knots
hPa Trend Height
m
Period
s
Dir
24/11:30pm 19.7 SSW 11 13 1014.8 - 0.0 - - 10 - - - -
24/11:00pm 20.1 SSW 9 12 1014.7 - 0.0 - - 10 - - - -
24/10:30pm 20.3 SSW 10 13 1015.0 - 0.0 - - 10 - - - -
24/10:00pm 20.7 S 6 9 1015.0 - 0.0 - - 10 - - - -
24/09:30pm 21.6 SSW 15 19 1014.0 - 0.0 - - 10 - - - -
24/09:00pm 22.9 SSW 14 21 1013.3 - 0.0 - - 10 - - - -
24/08:30pm 23.8 SSW 14 19 1012.6 - 0.0 - - 10 - - - -
24/08:00pm 24.4 SSW 16 24 1012.1 - 0.0 - - 10 - - - -
24/07:30pm 24.0 SSW 19 25 1011.6 - 0.0 - - 10 - - - -
24/07:00pm 23.9 S 19 25 1011.1 - 0.0 - - 10 - - - -
24/06:32pm 26.6 S 16 26 1010.5 - 0.0 - - 10 - - - -
24/06:30pm 26.8 S 15 21 1010.5 - 0.0 - - 10 - - - -
24/06:00pm 27.6 S 13 17 1010.4 - 0.0 - Mostly cloudy 10 - - - -
24/05:30pm 29.3 S 12 15 1010.1 - 0.0 - - 10 - - - -
24/05:00pm 31.0 SSE 9 12 1010.2 - 0.0 - - 10 - - - -
24/04:30pm 31.0 SSE 12 15 1010.1 - 0.0 - - 10 - - - -
24/04:00pm 30.6 SSE 11 16 1010.9 - 0.0 - - 10 - - - -
24/03:30pm 31.6 SE 10 13 1011.0 - 0.0 - - 10 - - - -
24/03:00pm 29.7 SE 11 14 1011.3 - 0.0 - - 10 - - - -
24/02:30pm 32.0 E 12 15 1011.5 - 0.0 - - 10 - - - -
24/02:00pm 31.7 E 12 16 1012.0 - 0.0 - - 10 - - - -
24/01:30pm 30.3 E 11 12 1012.2 - 0.0 - - 10 - - - -
24/01:00pm 29.0 E 9 11 1012.7 - 0.0 - - 10 - - - -
24/12:30pm 28.3 E 8 11 1013.0 - 0.0 - - 10 - - - -
24/12:00pm 28.9 E 7 9 1013.3 - 0.0 - - 10 - - - -
24/11:30am 25.7 SE 8 10 1013.7 - 0.0 - - 10 - - - -
24/11:00am 24.8 SSE 11 17 1013.9 - 0.0 - - 10 - - - -
24/10:50am 26.1 SSE 11 15 1013.7 - 0.0 - - 10 - - - -
24/10:30am 31.7 NNW 7 13 1013.6 - 0.0 - - 10 - - - -
24/10:00am 29.8 N 7 10 1013.7 - 0.0 - - 10 - - - -
24/09:30am 26.6 NNW 4 7 1013.6 - 0.0 - - 10 - - - -
24/09:00am 24.6 N 7 9 1013.7 - 0.0 - - 10 - - - -
24/08:30am 21.1 NNW 6 9 1013.8 - 0.0 - - 10 - - - -
24/08:00am 17.4 NNW 5 7 1014.0 - 0.0 - - 10 - - - -
24/07:30am 16.1 N 1 6 1013.7 - 0.0 - - 10 - - - -
24/07:00am 15.0 ENE 3 6 1013.5 - 0.0 - - 10 - - - -
24/06:30am 14.8 N 5 6 1013.4 - 0.0 - - 10 - - - -
24/06:00am 15.0 N 5 6 1012.9 - 0.0 - Mostly clear 10 - - - -
24/05:30am 14.8 N 5 7 1012.8 - 0.0 - - 10 - - - -
24/05:00am 14.6 N 5 6 1012.8 - 0.0 - - 10 - - - -
24/04:30am 15.2 NW 4 6 1012.7 - 0.0 - - 10 - - - -
24/04:00am 15.8 NW 3 5 1012.5 - 0.0 - - 10 - - - -
24/03:30am 15.7 WNW 6 8 1013.0 - 0.0 - - 10 - - - -
24/03:00am 15.5 WNW 6 7 1012.9 - 0.0 - Cloudy 10 - - - -
24/02:30am 15.3 CALM 0 0 1012.9 - 0.0 - - 10 - - - -
24/02:00am 14.9 WSW 2 5 1013.5 - 0.0 - - 10 - - - -
24/01:30am 14.9 W 3 5 1014.0 - 0.0 - - 10 - - - -
24/01:00am 14.7 W 6 7 1014.9 - 0.0 - - 10 - - - -
24/12:30am 15.2 CALM 0 0 1014.6 - 0.0 - - 10 - - - -
24/12:00am 16.1 SW 1 3 1015.2 - 0.0 - Mostly clear 10 - - - -
 
Date/Time
CDT
Temp

°C
Wind Pressure Rain
since 9am
mm
Weather Cloud Vis
km
Sea
Height
m
Swell
Dir
 
Speed
knots
Gust
knots
hPa Trend Height
m
Period
s
Dir
23/11:30pm 16.6 SW 3 4 1015.7 - 0.0 - - 10 - - - -
23/11:00pm 17.1 S 3 7 1015.9 - 0.0 - - 10 - - - -
23/10:30pm 17.5 SSW 7 9 1015.9 - 0.0 - - 10 - - - -
23/10:00pm 17.9 SSW 7 9 1015.7 - 0.0 - - 10 - - - -
23/09:30pm 18.3 SSW 8 11 1015.7 - 0.0 - - 10 - - - -
23/09:00pm 18.5 SSW 11 13 1015.6 - 0.0 - - 10 - - - -
23/08:30pm 18.5 S 10 15 1015.3 - 0.0 - - 10 - - - -
23/08:00pm 18.9 S 13 16 1014.9 - 0.0 - - 10 - - - -
23/07:30pm 19.2 S 15 18 1014.5 - 0.0 - - 10 - - - -
23/07:00pm 19.1 S 14 18 1014.3 - 0.0 - - 10 - - - -
23/06:30pm 19.1 S 13 17 1014.1 - 0.0 - - 10 - - - -
23/06:00pm 19.7 S 13 16 1013.8 - 0.0 - - 10 - - - -
23/05:30pm 20.8 SSE 10 13 1013.6 - 0.0 - - 10 - - - -
23/05:00pm 21.5 SSE 10 13 1013.5 - 0.0 - - 10 - - - -
23/04:30pm 20.5 SSE 10 13 1013.6 - 0.0 - - 10 - - - -
23/04:00pm 21.9 SSE 10 13 1013.8 - 0.0 - - 10 - - - -
23/03:30pm 21.8 SSE 9 12 1014.1 - 0.0 - - 10 - - - -
23/03:00pm 22.0 SSE 7 10 1014.3 - 0.0 - - 10 - - - -
23/02:30pm 22.0 SSE 7 9 1014.7 - 0.0 - - 10 - - - -
23/02:00pm 22.1 S 8 11 1015.2 - 0.0 - - 10 - - - -
23/01:30pm 20.8 S 7 11 1015.6 - 0.0 - - 10 - - - -
23/01:00pm 19.7 S 9 13 1015.6 - 0.0 - - 10 - - - -
23/12:30pm 19.3 SSE 9 12 1016.0 - 0.0 - - 10 - - - -
23/12:00pm 19.0 S 9 13 1016.5 - 0.0 - - 10 - - - -
23/11:30am 18.7 SSE 9 13 1016.8 - 0.0 - - 10 - - - -
23/11:04am 17.9 SSE 9 12 1017.1 - 0.0 - Partly cloudy 10 - - - -
23/11:00am 18.3 SSE 8 11 1017.1 - 0.0 - Partly cloudy 10 - - - -
23/10:30am 17.1 S 7 10 1017.5 - 0.0 - Partly cloudy 10 - - - -
23/10:00am 17.1 SSE 8 10 1017.4 - 0.0 - Cloudy 10 - - - -
23/09:30am 16.7 SSE 8 11 1017.8 - 0.0 - Cloudy 10 - - - -
23/09:00am 16.6 S 9 12 1017.8 - 0.0 - Cloudy 10 - - - -
23/08:30am 16.4 S 8 11 1018.1 - 0.0 - Cloudy 10 - - - -
23/08:00am 15.9 S 9 13 1018.1 - 0.0 - Cloudy 10 - - - -
23/07:30am 15.7 S 9 12 1018.2 - 0.0 - Cloudy 10 - - - -
23/07:00am 15.5 S 9 12 1018.1 - 0.0 - Cloudy 10 - - - -
23/06:30am 15.5 SSE 9 12 1017.7 - 0.0 - Cloudy 10 - - - -
23/06:00am 15.3 SSE 9 12 1017.6 - 0.0 - Cloudy 10 - - - -
23/05:30am 15.4 S 9 13 1017.6 - 0.0 - Cloudy 10 - - - -
23/05:00am 15.5 S 10 13 1017.7 - 0.0 - Cloudy 10 - - - -
23/04:30am 15.6 S 10 14 1017.8 - 0.0 - Cloudy 10 - - - -
23/04:00am 15.8 S 9 13 1017.7 - 0.0 - Cloudy 10 - - - -

Other Formats:

Comma delimited format used in spreadsheet applications
http://www.bom.gov.au/fwo/IDS60701/IDS60701.95664.axf

JavaScript Object Notation format (JSON) in row-major order
http://www.bom.gov.au/fwo/IDS60701/IDS60701.95664.json